createdAt,value
2023-02-20T00:02:16.486Z,96.11
2023-02-20T00:04:43.008Z,96.13
2023-02-20T00:07:09.544Z,95.70
2023-02-20T00:09:36.088Z,95.30
2023-02-20T00:12:02.681Z,93.90
2023-02-20T00:14:30.192Z,93.88
2023-02-20T00:16:57.263Z,94.06
2023-02-20T00:19:24.036Z,93.48
2023-02-20T00:21:51.821Z,93.32
2023-02-20T00:24:19.368Z,92.93
2023-02-20T00:26:47.825Z,92.79
2023-02-20T00:29:16.869Z,92.07
2023-02-20T00:31:43.606Z,92.40
2023-02-20T00:34:10.336Z,91.59
2023-02-20T00:36:36.868Z,91.36
2023-02-20T00:39:03.388Z,90.75
2023-02-20T00:41:29.962Z,90.59
2023-02-20T00:43:57.319Z,90.43
2023-02-20T00:46:24.102Z,90.02
2023-02-20T00:48:50.943Z,90.41
2023-02-20T00:51:17.503Z,90.34
2023-02-20T00:53:44.020Z,90.71
2023-02-20T00:56:12.767Z,91.25
2023-02-20T00:58:39.636Z,90.37
2023-02-20T01:01:06.486Z,90.38
2023-02-20T01:03:33.008Z,89.79
2023-02-20T01:05:59.544Z,90.32
2023-02-20T01:08:26.244Z,90.59
2023-02-20T01:10:52.715Z,89.77
2023-02-20T01:13:19.200Z,90.81
2023-02-20T01:15:45.819Z,90.30
2023-02-20T01:18:12.283Z,90.59
2023-02-20T01:20:38.840Z,91.40
2023-02-20T01:23:05.353Z,91.18
2023-02-20T01:25:31.882Z,91.02
2023-02-20T01:27:58.353Z,91.14
2023-02-20T01:30:24.801Z,91.58
2023-02-20T01:32:51.314Z,91.45
2023-02-20T01:35:18.085Z,91.82
2023-02-20T01:37:44.582Z,91.25
2023-02-20T01:40:21.930Z,91.31
2023-02-20T01:42:48.426Z,90.67
2023-02-20T01:45:17.384Z,91.41
2023-02-20T01:47:44.012Z,91.23
2023-02-20T01:50:11.076Z,91.47
2023-02-20T01:52:39.769Z,91.08
2023-02-20T01:55:13.145Z,91.36
2023-02-20T01:57:41.976Z,91.55
2023-02-20T02:00:12.361Z,91.82
2023-02-20T02:02:42.466Z,91.54
2023-02-20T02:05:10.468Z,91.06
2023-02-20T02:07:37.088Z,91.24
2023-02-20T02:10:08.103Z,91.39
2023-02-20T02:12:35.326Z,91.42
2023-02-20T02:15:01.946Z,91.26
2023-02-20T02:17:51.418Z,91.22
2023-02-20T02:20:39.448Z,90.95
2023-02-20T02:23:44.196Z,91.18
2023-02-20T02:26:38.497Z,91.06
2023-02-20T02:29:23.227Z,90.49
2023-02-20T02:32:25.350Z,90.44
2023-02-20T02:35:18.349Z,90.25
2023-02-20T02:37:53.057Z,90.49
2023-02-20T02:40:20.884Z,89.97
2023-02-20T02:43:04.499Z,89.89
2023-02-20T02:45:56.219Z,90.09
2023-02-20T02:48:58.537Z,90.26
2023-02-20T02:51:28.342Z,90.73
2023-02-20T02:54:07.765Z,90.93
2023-02-20T02:56:39.643Z,91.21
2023-02-20T02:59:09.130Z,91.54
2023-02-20T03:01:39.041Z,91.84
2023-02-20T03:04:07.314Z,91.47
2023-02-20T03:06:37.697Z,91.48
2023-02-20T03:09:11.118Z,91.27
2023-02-20T03:11:38.653Z,91.61
2023-02-20T03:14:25.537Z,91.96
2023-02-20T03:16:59.416Z,91.64
2023-02-20T03:19:36.478Z,91.65
2023-02-20T03:22:07.742Z,92.08
2023-02-20T03:24:55.471Z,92.47
2023-02-20T03:27:31.747Z,92.64
2023-02-20T03:29:59.678Z,92.44
2023-02-20T03:32:46.585Z,92.69
2023-02-20T03:35:32.128Z,92.48
2023-02-20T03:38:19.719Z,92.28
2023-02-20T03:41:05.255Z,92.41
2023-02-20T03:43:33.760Z,92.37
2023-02-20T03:46:14.337Z,92.56
2023-02-20T03:48:58.123Z,92.53
2023-02-20T03:51:43.333Z,92.53
2023-02-20T03:54:11.210Z,93.02
2023-02-20T03:56:53.140Z,93.21
2023-02-20T03:59:51.294Z,93.03
2023-02-20T04:02:25.097Z,93.77
2023-02-20T04:04:53.499Z,93.52
2023-02-20T04:07:24.776Z,93.97
2023-02-20T04:09:52.443Z,94.28
2023-02-20T04:12:27.803Z,94.61
2023-02-20T04:14:56.255Z,94.50
2023-02-20T04:17:28.314Z,94.46
2023-02-20T04:19:54.859Z,94.27
2023-02-20T04:22:26.231Z,93.64
2023-02-20T04:25:04.471Z,93.78
2023-02-20T04:27:32.187Z,93.46
2023-02-20T04:29:58.836Z,93.35
2023-02-20T04:32:25.367Z,93.99
2023-02-20T04:34:51.853Z,93.67
2023-02-20T04:37:19.793Z,93.44
2023-02-20T04:39:47.115Z,93.58
2023-02-20T04:42:13.667Z,94.16
2023-02-20T04:44:40.222Z,94.15
2023-02-20T04:47:09.079Z,93.51
2023-02-20T04:49:35.750Z,93.53
2023-02-20T04:52:02.638Z,93.98
2023-02-20T04:54:29.204Z,94.11
2023-02-20T04:56:56.422Z,94.13
2023-02-20T04:59:22.954Z,94.16
2023-02-20T05:01:52.063Z,93.88
2023-02-20T05:04:20.394Z,94.46
2023-02-20T05:06:50.110Z,93.90
2023-02-20T05:09:16.811Z,94.40
2023-02-20T05:11:43.356Z,94.24
2023-02-20T05:14:10.153Z,94.30
2023-02-20T05:16:38.584Z,94.16
2023-02-20T05:19:05.743Z,94.52
2023-02-20T05:21:51.204Z,94.22
2023-02-20T05:24:17.923Z,94.65
2023-02-20T05:26:44.697Z,94.72
2023-02-20T05:29:12.322Z,94.68
2023-02-20T05:31:42.262Z,95.17
2023-02-20T05:34:09.231Z,95.15
2023-02-20T05:36:35.707Z,95.03
2023-02-20T05:39:03.217Z,95.34
2023-02-20T05:41:29.785Z,95.36
2023-02-20T05:43:57.878Z,95.00
2023-02-20T05:46:27.611Z,94.76
2023-02-20T05:48:55.008Z,94.68
2023-02-20T05:51:27.893Z,94.82
2023-02-20T05:53:54.770Z,94.68
2023-02-20T05:56:21.849Z,94.70
2023-02-20T05:58:48.857Z,94.77
2023-02-20T06:01:23.349Z,94.67
2023-02-20T06:03:49.911Z,94.71
2023-02-20T06:06:16.965Z,94.73
2023-02-20T06:08:43.833Z,94.69
2023-02-20T06:11:12.383Z,94.90
2023-02-20T06:13:43.155Z,94.67
2023-02-20T06:16:10.023Z,95.00
2023-02-20T06:18:40.242Z,94.47
2023-02-20T06:21:09.019Z,94.47
2023-02-20T06:23:39.269Z,94.43
2023-02-20T06:26:06.921Z,94.12
2023-02-20T06:28:33.665Z,94.23
2023-02-20T06:31:01.835Z,94.37
2023-02-20T06:33:29.065Z,94.33
2023-02-20T06:35:56.063Z,94.36
2023-02-20T06:38:23.267Z,94.20
2023-02-20T06:40:49.896Z,94.75
2023-02-20T06:43:16.586Z,94.06
2023-02-20T06:45:43.364Z,94.30
2023-02-20T06:48:09.999Z,94.04
2023-02-20T06:50:36.547Z,94.34
2023-02-20T06:53:03.242Z,94.02
2023-02-20T06:55:29.721Z,93.99
2023-02-20T06:57:57.259Z,93.50
2023-02-20T07:00:23.797Z,94.09
2023-02-20T07:02:50.425Z,94.23
2023-02-20T07:05:16.907Z,93.83
2023-02-20T07:07:43.520Z,93.80
2023-02-20T07:10:10.172Z,93.87
2023-02-20T07:12:38.429Z,93.13
2023-02-20T07:15:07.974Z,93.03
2023-02-20T07:17:34.640Z,92.89
2023-02-20T07:20:01.265Z,93.24
2023-02-20T07:22:27.851Z,93.41
2023-02-20T07:24:55.112Z,93.29
2023-02-20T07:27:22.731Z,93.31
2023-02-20T07:29:50.614Z,93.18
2023-02-20T07:32:20.425Z,93.10
2023-02-20T07:35:01.433Z,93.20
2023-02-20T07:37:30.641Z,92.43
2023-02-20T07:39:57.473Z,92.21
2023-02-20T07:42:24.176Z,91.81
2023-02-20T07:44:50.686Z,92.02
2023-02-20T07:47:17.213Z,92.26
2023-02-20T07:49:44.205Z,92.69
2023-02-20T07:52:10.724Z,92.14
2023-02-20T07:54:37.308Z,92.24
2023-02-20T07:57:03.815Z,91.57
2023-02-20T07:59:30.485Z,91.29
2023-02-20T08:01:57.776Z,91.35
2023-02-20T08:04:24.340Z,91.38
2023-02-20T08:06:50.858Z,90.55
2023-02-20T08:09:17.351Z,90.48
2023-02-20T08:11:43.810Z,90.58
2023-02-20T08:14:10.627Z,90.46
2023-02-20T08:16:37.331Z,91.58
2023-02-20T08:19:03.840Z,91.49
2023-02-20T08:21:30.455Z,91.75
2023-02-20T08:23:57.755Z,92.55
2023-02-20T08:26:24.681Z,92.64
2023-02-20T08:28:51.685Z,93.04
2023-02-20T08:31:31.182Z,93.51
2023-02-20T08:33:58.529Z,93.28
2023-02-20T08:36:25.008Z,93.92
2023-02-20T08:38:51.555Z,93.79
2023-02-20T08:41:18.083Z,94.64
2023-02-20T08:43:44.768Z,95.63
2023-02-20T08:46:12.136Z,96.39
2023-02-20T08:48:38.918Z,98.52
2023-02-20T08:51:06.847Z,99.83
2023-02-20T11:59:40.839Z,100.00
2023-02-20T12:02:15.989Z,100.00
2023-02-20T12:05:12.802Z,100.00
2023-02-20T12:07:40.978Z,100.00
2023-02-20T12:10:23.083Z,100.00
2023-02-20T12:12:49.883Z,100.00
2023-02-20T12:15:18.584Z,100.00
2023-02-20T12:18:13.689Z,100.00
2023-02-20T12:20:46.017Z,100.00
2023-02-20T12:23:20.965Z,100.00
2023-02-20T12:26:28.099Z,100.00
2023-02-20T12:29:11.063Z,100.00
2023-02-20T12:32:08.193Z,100.00
2023-02-20T12:34:59.793Z,100.00
2023-02-20T12:38:03.629Z,100.00
2023-02-20T12:40:46.809Z,100.00
2023-02-20T12:43:43.509Z,100.00
2023-02-20T12:46:32.059Z,100.00
2023-02-20T12:49:35.783Z,100.00
2023-02-20T12:52:39.923Z,100.00
2023-02-20T12:55:47.058Z,100.00
2023-02-20T12:58:25.779Z,100.00
2023-02-20T13:01:13.012Z,100.00
2023-02-20T13:03:58.438Z,100.00
2023-02-20T13:06:30.334Z,100.00
2023-02-20T13:09:05.536Z,100.00
2023-02-20T13:11:37.150Z,100.00
2023-02-20T13:14:09.317Z,100.00
2023-02-20T13:16:47.302Z,100.00
2023-02-20T13:19:38.523Z,100.00
2023-02-20T13:22:06.577Z,100.00
2023-02-20T13:24:38.556Z,100.00
2023-02-20T13:27:09.544Z,100.00
2023-02-20T13:30:00.075Z,100.00
2023-02-20T13:32:31.740Z,100.00
2023-02-20T13:35:32.579Z,100.00
2023-02-20T13:38:10.742Z,100.00
2023-02-20T13:40:40.121Z,100.00
2023-02-20T13:43:12.716Z,100.00
2023-02-20T13:45:45.153Z,100.00
2023-02-20T13:48:37.555Z,100.00
2023-02-20T13:51:16.384Z,100.00
2023-02-20T13:53:44.333Z,100.00
2023-02-20T13:56:25.134Z,100.00
2023-02-20T13:58:53.781Z,100.00
2023-02-20T14:01:20.374Z,100.00
2023-02-20T14:04:03.245Z,100.00
2023-02-20T14:06:30.376Z,100.00
2023-02-20T14:09:11.600Z,100.00
2023-02-20T14:11:39.689Z,100.00
2023-02-20T14:14:21.066Z,100.00
2023-02-20T14:16:47.652Z,100.00
2023-02-20T14:19:21.921Z,100.00
2023-02-20T14:21:48.769Z,100.00
2023-02-20T14:24:27.411Z,100.00
2023-02-20T14:26:57.312Z,100.00
2023-02-20T14:29:28.086Z,100.00
2023-02-20T14:31:57.548Z,100.00
2023-02-20T14:34:33.584Z,100.00
2023-02-20T14:37:15.102Z,100.00
2023-02-20T14:39:41.708Z,100.00
2023-02-20T14:42:23.762Z,100.00
2023-02-20T14:45:02.886Z,100.00
2023-02-20T14:47:29.580Z,100.00
2023-02-20T14:50:18.042Z,100.00
2023-02-20T14:52:44.770Z,100.00
2023-02-20T14:55:16.242Z,100.00
2023-02-20T14:57:42.818Z,100.00
2023-02-20T15:00:23.785Z,100.00
2023-02-20T15:02:55.301Z,100.00
2023-02-20T15:05:32.000Z,100.00
2023-02-20T15:08:16.039Z,100.00
2023-02-20T15:10:44.585Z,99.72
2023-02-20T15:13:14.104Z,99.82
2023-02-20T15:15:45.722Z,100.00
2023-02-20T15:18:18.021Z,100.00
2023-02-20T15:20:49.405Z,100.00
2023-02-20T15:23:16.195Z,100.00
2023-02-20T15:25:43.794Z,100.00
2023-02-20T15:28:17.975Z,99.88
2023-02-20T15:31:05.311Z,100.00
2023-02-20T15:33:35.048Z,100.00
2023-02-20T15:36:02.364Z,100.00
2023-02-20T15:38:31.329Z,99.56
2023-02-20T15:40:59.351Z,99.91
2023-02-20T15:46:14.743Z,99.19
2023-02-20T15:48:41.784Z,99.10
2023-02-20T15:51:09.579Z,98.92
2023-02-20T15:53:36.730Z,98.17
2023-02-20T15:56:03.773Z,98.78
2023-02-20T15:58:35.350Z,98.44
2023-02-20T16:01:02.385Z,98.11
2023-02-20T16:03:33.833Z,97.92
2023-02-20T16:06:02.920Z,97.45
2023-02-20T16:08:29.611Z,97.28
2023-02-20T16:10:57.838Z,97.19
2023-02-20T16:13:32.056Z,96.17
2023-02-20T16:15:58.982Z,96.97
2023-02-20T16:18:25.588Z,97.53
2023-02-20T16:20:52.525Z,96.85
2023-02-20T16:23:19.089Z,96.80
2023-02-20T16:25:45.550Z,96.79
2023-02-20T16:28:13.694Z,95.84
2023-02-20T16:30:43.792Z,96.01
2023-02-20T16:33:18.976Z,96.04
2023-02-20T16:35:47.211Z,96.39
2023-02-20T16:38:14.209Z,96.54
2023-02-20T16:40:41.054Z,96.53
2023-02-20T16:43:08.148Z,96.30
2023-02-20T16:45:36.985Z,97.17
2023-02-20T16:48:05.086Z,98.14
2023-02-20T16:50:32.024Z,99.33
2023-02-20T16:52:59.256Z,100.00
2023-02-20T16:55:39.043Z,100.00
2023-02-20T16:58:05.993Z,100.00
2023-02-20T17:00:36.898Z,100.00
2023-02-20T17:03:06.571Z,100.00
2023-02-20T17:05:35.024Z,100.00
2023-02-20T17:08:01.955Z,100.00
2023-02-20T17:10:29.102Z,100.00
2023-02-20T17:12:57.348Z,100.00
2023-02-20T17:15:25.043Z,100.00
2023-02-20T17:17:52.464Z,100.00
2023-02-20T17:20:21.493Z,100.00
2023-02-20T17:23:02.703Z,100.00
2023-02-20T17:25:31.634Z,100.00
2023-02-20T17:27:58.391Z,100.00
2023-02-20T17:30:25.326Z,100.00
2023-02-20T17:32:52.166Z,100.00
2023-02-20T17:35:18.760Z,100.00
2023-02-20T17:37:45.264Z,100.00
2023-02-20T17:40:12.962Z,100.00
2023-02-20T17:42:39.502Z,100.00
2023-02-20T17:45:06.420Z,100.00
2023-02-20T17:47:33.542Z,100.00
2023-02-20T17:50:00.144Z,100.00
2023-02-20T17:52:26.658Z,100.00
2023-02-20T17:54:55.902Z,100.00
2023-02-20T17:57:22.794Z,100.00
2023-02-20T17:59:49.467Z,100.00
2023-02-20T18:02:17.054Z,100.00
2023-02-20T18:04:43.856Z,100.00
2023-02-20T18:07:11.511Z,100.00
2023-02-20T18:09:38.696Z,100.00
2023-02-20T18:12:05.809Z,100.00
2023-02-20T18:14:32.457Z,100.00
2023-02-20T18:16:59.003Z,100.00
2023-02-20T18:19:25.606Z,100.00
2023-02-20T18:21:52.794Z,100.00
2023-02-20T18:24:23.944Z,100.00
2023-02-20T18:26:51.852Z,100.00
2023-02-20T18:29:18.519Z,100.00
2023-02-20T18:31:45.251Z,100.00
2023-02-20T18:34:12.106Z,100.00
2023-02-20T18:36:38.924Z,100.00
2023-02-20T18:39:05.738Z,100.00
2023-02-20T18:41:32.363Z,100.00
2023-02-20T18:43:58.824Z,100.00
2023-02-20T18:46:30.879Z,100.00
2023-02-20T18:48:59.174Z,100.00
2023-02-20T18:51:27.853Z,100.00
2023-02-20T18:53:54.805Z,100.00
2023-02-20T18:56:22.654Z,100.00
2023-02-20T18:58:49.197Z,100.00
2023-02-20T19:01:22.390Z,100.00
2023-02-20T19:03:53.542Z,100.00
2023-02-20T19:06:34.382Z,100.00
2023-02-20T19:09:01.936Z,100.00
2023-02-20T19:11:29.190Z,100.00
2023-02-20T19:13:56.123Z,100.00
2023-02-20T19:16:22.733Z,100.00
2023-02-20T19:18:50.699Z,100.00
2023-02-20T19:21:18.709Z,100.00
2023-02-20T19:23:45.930Z,100.00
2023-02-20T19:26:13.220Z,100.00
2023-02-20T19:28:42.105Z,100.00
2023-02-20T19:31:09.979Z,100.00
2023-02-20T19:33:36.593Z,100.00
2023-02-20T19:36:03.652Z,100.00
2023-02-20T19:38:30.137Z,100.00
2023-02-20T19:40:57.606Z,100.00
2023-02-20T19:43:26.457Z,100.00
2023-02-20T19:45:52.963Z,100.00
2023-02-20T19:48:19.585Z,100.00
2023-02-20T19:50:46.096Z,100.00
2023-02-20T19:53:12.670Z,100.00
2023-02-20T19:55:39.171Z,100.00
2023-02-20T19:58:05.672Z,100.00
2023-02-20T20:00:32.425Z,100.00
2023-02-20T20:02:58.957Z,100.00
2023-02-20T20:05:26.037Z,100.00
2023-02-20T20:07:52.509Z,100.00
2023-02-20T20:10:23.127Z,100.00
2023-02-20T20:12:49.860Z,100.00
2023-02-20T20:15:18.596Z,100.00
2023-02-20T20:17:50.314Z,100.00
2023-02-20T20:20:19.106Z,100.00
2023-02-20T20:22:46.044Z,100.00
2023-02-20T20:25:13.442Z,100.00
2023-02-20T20:27:40.656Z,100.00
2023-02-20T20:30:20.643Z,100.00
2023-02-20T20:32:49.740Z,100.00
2023-02-20T20:35:17.358Z,100.00
2023-02-20T20:37:43.817Z,100.00
2023-02-20T20:40:11.480Z,100.00
2023-02-20T20:42:37.997Z,100.00
2023-02-20T20:45:04.681Z,100.00
2023-02-20T20:47:31.260Z,100.00
2023-02-20T20:49:58.577Z,100.00
2023-02-20T20:52:26.717Z,100.00
2023-02-20T20:54:55.889Z,100.00
2023-02-20T20:57:24.879Z,100.00
2023-02-20T20:59:51.825Z,100.00
2023-02-20T21:02:19.580Z,100.00
2023-02-20T21:04:49.242Z,100.00
2023-02-20T21:07:18.134Z,100.00
2023-02-20T21:09:44.759Z,100.00
2023-02-20T21:12:12.937Z,100.00
2023-02-20T21:14:40.323Z,100.00
2023-02-20T21:17:07.794Z,100.00
2023-02-20T21:19:34.370Z,100.00
2023-02-20T21:22:01.017Z,100.00
2023-02-20T21:24:27.517Z,100.00
2023-02-20T21:26:53.979Z,100.00
2023-02-20T21:29:20.573Z,100.00
2023-02-20T21:31:47.536Z,100.00
2023-02-20T21:34:16.297Z,100.00
2023-02-20T21:36:43.885Z,100.00
2023-02-20T21:39:10.528Z,100.00
2023-02-20T21:41:56.016Z,100.00
2023-02-20T21:44:26.710Z,100.00
2023-02-20T21:47:01.479Z,100.00
2023-02-20T21:49:29.313Z,100.00
2023-02-20T21:51:57.212Z,100.00
2023-02-20T21:54:26.972Z,100.00
2023-02-20T21:56:54.031Z,100.00
2023-02-20T21:59:20.585Z,100.00
2023-02-20T22:01:47.055Z,100.00
2023-02-20T22:04:14.577Z,100.00
2023-02-20T22:06:41.754Z,100.00
2023-02-20T22:09:27.395Z,100.00
2023-02-20T22:12:12.517Z,100.00
2023-02-20T22:14:57.738Z,100.00
2023-02-20T22:17:42.571Z,100.00
2023-02-20T22:20:30.477Z,100.00
2023-02-20T22:23:15.981Z,100.00
2023-02-20T22:26:01.421Z,100.00
2023-02-20T22:28:46.525Z,100.00
2023-02-20T22:31:31.962Z,100.00
2023-02-20T22:34:17.133Z,100.00
2023-02-20T22:37:02.481Z,100.00
2023-02-20T22:39:47.666Z,100.00
2023-02-20T22:42:35.115Z,100.00
2023-02-20T22:45:21.149Z,100.00
2023-02-20T22:48:06.127Z,100.00
2023-02-20T22:50:51.424Z,100.00
2023-02-20T22:53:36.400Z,100.00
2023-02-20T22:56:21.414Z,100.00
2023-02-20T22:59:06.674Z,100.00
2023-02-20T23:01:51.690Z,100.00
2023-02-20T23:04:36.867Z,100.00
2023-02-20T23:07:22.134Z,100.00
2023-02-20T23:10:07.233Z,100.00
2023-02-20T23:12:52.382Z,100.00
2023-02-20T23:15:37.529Z,100.00
2023-02-20T23:18:23.205Z,100.00
2023-02-20T23:21:08.411Z,100.00
2023-02-20T23:23:53.788Z,100.00
2023-02-20T23:26:39.087Z,100.00
2023-02-20T23:29:24.139Z,100.00
2023-02-20T23:32:09.411Z,100.00
2023-02-20T23:34:54.953Z,100.00
2023-02-20T23:37:39.972Z,100.00
2023-02-20T23:40:35.955Z,100.00
2023-02-20T23:43:25.268Z,100.00
2023-02-20T23:46:10.355Z,100.00
2023-02-20T23:48:56.069Z,100.00
2023-02-20T23:51:41.561Z,100.00
2023-02-20T23:54:26.788Z,100.00
2023-02-20T23:57:13.184Z,100.00
2023-02-20T23:59:58.150Z,100.00
